createdAt,value
2023-05-28T00:00:16.922Z,940.15
2023-05-28T00:01:17.033Z,940.18
2023-05-28T00:02:16.954Z,940.17
2023-05-28T00:03:16.950Z,940.13
2023-05-28T00:04:16.964Z,940.14
2023-05-28T00:05:16.852Z,940.10
2023-05-28T00:06:16.854Z,940.12
2023-05-28T00:07:16.849Z,940.03
2023-05-28T00:08:16.862Z,940.09
2023-05-28T00:09:16.887Z,940.07
2023-05-28T00:10:16.813Z,940.09
2023-05-28T00:11:16.825Z,940.05
2023-05-28T00:12:16.794Z,940.05
2023-05-28T00:13:16.775Z,940.00
2023-05-28T00:14:16.782Z,940.05
2023-05-28T00:15:16.754Z,940.04
2023-05-28T00:16:16.778Z,940.04
2023-05-28T00:17:16.738Z,940.02
2023-05-28T00:18:16.720Z,940.02
2023-05-28T00:19:16.737Z,939.98
2023-05-28T00:20:16.725Z,940.00
2023-05-28T00:21:16.700Z,940.00
2023-05-28T00:22:16.669Z,940.03
2023-05-28T00:23:16.664Z,940.03
2023-05-28T00:24:16.649Z,939.99
2023-05-28T00:25:16.692Z,940.03
2023-05-28T00:26:16.653Z,939.99
2023-05-28T00:27:16.624Z,939.95
2023-05-28T00:28:16.602Z,940.00
2023-05-28T00:29:16.602Z,939.97
2023-05-28T00:30:16.582Z,939.98
2023-05-28T00:31:16.767Z,939.94
2023-05-28T00:32:16.570Z,939.96
2023-05-28T00:33:16.555Z,939.91
2023-05-28T00:34:16.547Z,939.91
2023-05-28T00:35:16.546Z,939.87
2023-05-28T00:36:16.542Z,939.88
2023-05-28T00:37:16.552Z,939.86
2023-05-28T00:38:16.512Z,939.89
2023-05-28T00:39:16.495Z,939.89
2023-05-28T00:40:16.481Z,939.88
2023-05-28T00:41:16.491Z,939.90
2023-05-28T00:42:16.492Z,939.87
2023-05-28T00:43:16.471Z,939.85
2023-05-28T00:44:16.469Z,939.87
2023-05-28T00:45:16.446Z,939.84
2023-05-28T00:46:16.564Z,939.82
2023-05-28T00:47:16.414Z,939.85
2023-05-28T00:48:16.427Z,939.86
2023-05-28T00:49:16.382Z,939.85
2023-05-28T00:50:16.384Z,939.82
2023-05-28T00:51:16.364Z,939.86
2023-05-28T00:52:16.415Z,939.87
2023-05-28T00:53:16.372Z,939.83
2023-05-28T00:54:16.378Z,939.83
2023-05-28T00:55:16.362Z,939.84
2023-05-28T00:56:16.311Z,939.86
2023-05-28T00:57:16.309Z,939.86
2023-05-28T00:58:16.321Z,939.84
2023-05-28T00:59:16.296Z,939.79
2023-05-28T01:00:16.302Z,939.82
2023-05-28T01:01:16.296Z,939.82
2023-05-28T01:02:16.257Z,939.84
2023-05-28T01:03:17.029Z,939.80
2023-05-28T01:04:16.228Z,939.82
2023-05-28T01:05:16.235Z,939.81
2023-05-28T01:06:16.270Z,939.85
2023-05-28T01:07:16.205Z,939.81
2023-05-28T01:08:16.213Z,939.82
2023-05-28T01:09:16.201Z,939.79
2023-05-28T01:10:16.216Z,939.80
2023-05-28T01:11:16.169Z,939.77
2023-05-28T01:12:16.151Z,939.78
2023-05-28T01:13:16.125Z,939.77
2023-05-28T01:14:16.181Z,939.72
2023-05-28T01:15:16.120Z,939.72
2023-05-28T01:16:16.215Z,939.71
2023-05-28T01:17:16.156Z,939.72
2023-05-28T01:18:16.094Z,939.69
2023-05-28T01:19:16.099Z,939.68
2023-05-28T01:20:16.163Z,939.70
2023-05-28T01:21:16.059Z,939.67
2023-05-28T01:22:16.050Z,939.70
2023-05-28T01:23:16.056Z,939.70
2023-05-28T01:24:16.013Z,939.69
2023-05-28T01:25:17.539Z,939.65
2023-05-28T01:26:16.112Z,939.65
2023-05-28T01:27:15.980Z,939.64
2023-05-28T01:28:15.983Z,939.58
2023-05-28T01:29:15.965Z,939.59
2023-05-28T01:30:16.015Z,939.57
2023-05-28T01:31:15.994Z,939.57
2023-05-28T01:32:15.935Z,939.55
2023-05-28T01:33:15.937Z,939.56
2023-05-28T01:34:15.902Z,939.56
2023-05-28T01:35:15.942Z,939.56
2023-05-28T01:36:15.896Z,939.55
2023-05-28T01:37:15.952Z,939.54
2023-05-28T01:38:15.865Z,939.53
2023-05-28T01:39:15.862Z,939.50
2023-05-28T01:40:16.071Z,939.48
2023-05-28T01:41:15.849Z,939.54
2023-05-28T01:42:15.828Z,939.52
2023-05-28T01:43:15.843Z,939.47
2023-05-28T01:44:15.801Z,939.45
2023-05-28T01:45:15.803Z,939.48
2023-05-28T01:46:15.858Z,939.49
2023-05-28T01:47:15.763Z,939.48
2023-05-28T01:48:15.758Z,939.47
2023-05-28T01:49:15.766Z,939.47
2023-05-28T01:50:15.734Z,939.45
2023-05-28T01:51:15.729Z,939.44
2023-05-28T01:52:15.772Z,939.44
2023-05-28T01:53:15.713Z,939.41
2023-05-28T01:54:15.690Z,939.45
2023-05-28T01:55:15.699Z,939.40
2023-05-28T01:56:15.704Z,939.43
2023-05-28T01:57:15.672Z,939.41
2023-05-28T01:58:15.656Z,939.40
2023-05-28T01:59:15.678Z,939.46
2023-05-28T02:00:15.625Z,939.42
2023-05-28T02:01:15.655Z,939.44
2023-05-28T02:02:15.723Z,939.47
2023-05-28T02:03:15.594Z,939.45
2023-05-28T02:04:15.706Z,939.45
2023-05-28T02:05:15.605Z,939.41
2023-05-28T02:06:15.630Z,939.42
2023-05-28T02:07:15.571Z,939.41
2023-05-28T02:08:15.596Z,939.41
2023-05-28T02:09:15.528Z,939.39
2023-05-28T02:10:15.567Z,939.44
2023-05-28T02:11:15.508Z,939.45
2023-05-28T02:12:15.518Z,939.43
2023-05-28T02:13:15.488Z,939.41
2023-05-28T02:14:15.799Z,939.40
2023-05-28T02:15:15.555Z,939.43
2023-05-28T02:16:15.514Z,939.48
2023-05-28T02:17:15.562Z,939.44
2023-05-28T02:18:15.474Z,939.48
2023-05-28T02:19:16.060Z,939.47
2023-05-28T02:20:15.518Z,939.45
2023-05-28T02:21:15.427Z,939.47
2023-05-28T02:22:15.402Z,939.46
2023-05-28T02:23:15.452Z,939.48
2023-05-28T02:24:15.380Z,939.43
2023-05-28T02:25:15.570Z,939.46
2023-05-28T02:26:15.349Z,939.48
2023-05-28T02:27:15.341Z,939.47
2023-05-28T02:28:15.339Z,939.50
2023-05-28T02:29:16.034Z,939.47
2023-05-28T02:30:15.406Z,939.48
2023-05-28T02:31:15.432Z,939.49
2023-05-28T02:32:15.370Z,939.51
2023-05-28T02:33:15.291Z,939.55
2023-05-28T02:34:16.064Z,939.52
2023-05-28T02:35:15.298Z,939.51
2023-05-28T02:36:15.265Z,939.52
2023-05-28T02:37:15.627Z,939.56
2023-05-28T02:38:15.298Z,939.59
2023-05-28T02:39:15.216Z,939.57
2023-05-28T02:40:15.201Z,939.51
2023-05-28T02:41:15.201Z,939.53
2023-05-28T02:42:15.210Z,939.53
2023-05-28T02:43:15.200Z,939.57
2023-05-28T02:44:15.166Z,939.51
2023-05-28T02:45:15.190Z,939.55
2023-05-28T02:46:15.237Z,939.58
2023-05-28T02:47:15.139Z,939.60
2023-05-28T02:48:15.248Z,939.56
2023-05-28T02:49:15.130Z,939.58
2023-05-28T02:50:15.122Z,939.53
2023-05-28T02:51:15.145Z,939.57
2023-05-28T02:52:15.102Z,939.58
2023-05-28T02:53:15.081Z,939.56
2023-05-28T02:54:15.167Z,939.54
2023-05-28T02:55:15.061Z,939.57
2023-05-28T02:56:15.073Z,939.59
2023-05-28T02:57:15.033Z,939.56
2023-05-28T02:58:15.032Z,939.57
2023-05-28T02:59:15.532Z,939.63
2023-05-28T03:00:15.000Z,939.63
2023-05-28T03:01:15.043Z,939.62
2023-05-28T03:02:15.014Z,939.62
2023-05-28T03:03:15.135Z,939.67
2023-05-28T03:04:14.979Z,939.64
2023-05-28T03:05:14.954Z,939.65
2023-05-28T03:06:15.034Z,939.71
2023-05-28T03:07:14.948Z,939.71
2023-05-28T03:08:14.910Z,939.70
2023-05-28T03:09:14.902Z,939.71
2023-05-28T03:10:14.889Z,939.71
2023-05-28T03:11:14.886Z,939.74
2023-05-28T03:12:14.904Z,939.75
2023-05-28T03:13:14.870Z,939.79
2023-05-28T03:14:14.859Z,939.77
2023-05-28T03:15:14.857Z,939.75
2023-05-28T03:16:14.881Z,939.71
2023-05-28T03:17:14.964Z,939.78
2023-05-28T03:18:14.826Z,939.74
2023-05-28T03:19:14.824Z,939.74
2023-05-28T03:20:14.823Z,939.78
2023-05-28T03:21:14.792Z,939.82
2023-05-28T03:22:14.822Z,939.78
2023-05-28T03:23:14.759Z,939.83
2023-05-28T03:24:14.799Z,939.83
2023-05-28T03:25:14.774Z,939.81
2023-05-28T03:26:14.769Z,939.84
2023-05-28T03:27:14.753Z,939.85
2023-05-28T03:28:14.728Z,939.85
2023-05-28T03:29:14.721Z,939.83
2023-05-28T03:30:14.689Z,939.82
2023-05-28T03:31:14.731Z,939.81
2023-05-28T03:32:14.672Z,939.87
2023-05-28T03:33:14.682Z,939.83
2023-05-28T03:34:14.649Z,939.83
2023-05-28T03:35:14.675Z,939.81
2023-05-28T03:36:14.638Z,939.81
2023-05-28T03:37:14.645Z,939.77
2023-05-28T03:38:14.649Z,939.82
2023-05-28T03:39:14.593Z,939.74
2023-05-28T03:40:14.622Z,939.73
2023-05-28T03:41:14.572Z,939.77
2023-05-28T03:42:14.567Z,939.71
2023-05-28T03:43:14.620Z,939.73
2023-05-28T03:44:14.548Z,939.73
2023-05-28T03:45:14.539Z,939.73
2023-05-28T03:46:14.698Z,939.74
2023-05-28T03:47:14.530Z,939.71
2023-05-28T03:48:14.509Z,939.62
2023-05-28T03:49:14.558Z,939.67
2023-05-28T03:50:14.500Z,939.67
2023-05-28T03:51:14.518Z,939.70
2023-05-28T03:52:14.484Z,939.69
2023-05-28T03:53:14.456Z,939.72
2023-05-28T03:54:14.488Z,939.72
2023-05-28T03:55:14.482Z,939.68
2023-05-28T03:56:14.483Z,939.70
2023-05-28T03:57:14.412Z,939.73
2023-05-28T03:58:14.410Z,939.71
2023-05-28T03:59:14.413Z,939.74
2023-05-28T04:00:14.395Z,939.75
2023-05-28T04:01:14.579Z,939.76
2023-05-28T04:02:14.357Z,939.75
2023-05-28T04:03:14.430Z,939.79
2023-05-28T04:04:14.462Z,939.78
2023-05-28T04:05:14.454Z,939.82
2023-05-28T04:06:14.412Z,939.81
2023-05-28T04:07:14.303Z,939.83
2023-05-28T04:08:14.316Z,939.82
2023-05-28T04:09:14.276Z,939.85
2023-05-28T04:10:14.297Z,939.87
2023-05-28T04:11:14.261Z,939.85
2023-05-28T04:12:14.281Z,939.83
2023-05-28T04:13:14.247Z,939.84
2023-05-28T04:14:14.241Z,939.90
2023-05-28T04:15:14.234Z,939.88
2023-05-28T04:16:14.316Z,939.91
2023-05-28T04:17:14.224Z,939.89
2023-05-28T04:18:14.183Z,939.95
2023-05-28T04:19:14.249Z,939.94
2023-05-28T04:20:14.214Z,939.92
2023-05-28T04:21:14.157Z,939.90
2023-05-28T04:22:14.200Z,939.90
2023-05-28T04:23:14.146Z,939.91
2023-05-28T04:24:14.135Z,939.95
2023-05-28T04:25:14.111Z,939.96
2023-05-28T04:26:14.131Z,939.96
2023-05-28T04:27:14.085Z,939.97
2023-05-28T04:28:14.107Z,939.98
2023-05-28T04:29:14.091Z,940.00
2023-05-28T04:30:14.110Z,940.02
2023-05-28T04:31:14.049Z,939.99
2023-05-28T04:32:14.108Z,940.05
2023-05-28T04:33:14.026Z,939.97
2023-05-28T04:34:14.017Z,940.00
2023-05-28T04:35:14.024Z,939.95
2023-05-28T04:36:14.024Z,939.93
2023-05-28T04:37:13.992Z,939.98
2023-05-28T04:38:14.028Z,939.95
2023-05-28T04:39:13.961Z,939.96
2023-05-28T04:40:13.955Z,939.96
2023-05-28T04:41:13.933Z,939.98
2023-05-28T04:42:13.964Z,939.98
2023-05-28T04:43:13.926Z,940.03
2023-05-28T04:44:13.953Z,940.03
2023-05-28T04:45:13.911Z,939.98
2023-05-28T04:46:14.004Z,940.01
2023-05-28T04:47:13.872Z,940.00
2023-05-28T04:48:13.888Z,940.01
2023-05-28T04:49:13.857Z,939.98
2023-05-28T04:50:13.898Z,940.01
2023-05-28T04:51:13.838Z,940.02
2023-05-28T04:52:21.659Z,940.01
2023-05-28T04:53:13.827Z,939.99
2023-05-28T04:54:13.819Z,939.99
2023-05-28T04:55:13.839Z,939.94
2023-05-28T04:56:13.775Z,939.91
2023-05-28T04:57:13.810Z,939.88
2023-05-28T04:58:13.796Z,939.95
2023-05-28T04:59:13.747Z,939.94
2023-05-28T05:00:13.872Z,939.90
2023-05-28T05:01:13.777Z,939.93
2023-05-28T05:02:13.812Z,939.95
2023-05-28T05:03:13.765Z,939.86
2023-05-28T05:04:13.801Z,939.98
2023-05-28T05:05:13.698Z,939.93
2023-05-28T05:06:14.608Z,939.86
2023-05-28T05:07:13.683Z,939.92
2023-05-28T05:08:13.675Z,939.86
2023-05-28T05:09:13.653Z,939.90
2023-05-28T05:10:13.668Z,939.87
2023-05-28T05:11:13.625Z,939.91
2023-05-28T05:12:13.614Z,939.86
2023-05-28T05:13:13.644Z,939.85
2023-05-28T05:14:13.636Z,939.86
2023-05-28T05:15:13.597Z,939.81
2023-05-28T05:16:13.762Z,939.75
2023-05-28T05:17:13.559Z,939.77
2023-05-28T05:18:13.590Z,939.76
2023-05-28T05:19:13.563Z,939.77
2023-05-28T05:20:13.594Z,939.76
2023-05-28T05:21:13.549Z,939.79
2023-05-28T05:22:13.515Z,939.76
2023-05-28T05:23:13.521Z,939.73
2023-05-28T05:24:13.516Z,939.75
2023-05-28T05:25:13.488Z,939.70
2023-05-28T05:26:13.593Z,939.77
2023-05-28T05:27:13.468Z,939.75
2023-05-28T05:28:13.474Z,939.72
2023-05-28T05:29:13.479Z,939.76
2023-05-28T05:30:13.452Z,939.74
2023-05-28T05:31:13.670Z,939.71
2023-05-28T05:32:13.555Z,939.74
2023-05-28T05:33:13.428Z,939.75
2023-05-28T05:34:13.387Z,939.77
2023-05-28T05:35:13.475Z,939.80
2023-05-28T05:36:13.364Z,939.78
2023-05-28T05:37:13.345Z,939.84
2023-05-28T05:38:13.380Z,939.82
2023-05-28T05:39:13.324Z,939.78
2023-05-28T05:40:13.326Z,939.79
2023-05-28T05:41:13.300Z,939.77
2023-05-28T05:42:13.298Z,939.78
2023-05-28T05:43:13.320Z,939.70
2023-05-28T05:44:13.276Z,939.73
2023-05-28T05:45:13.260Z,939.74
2023-05-28T05:46:13.338Z,939.73
2023-05-28T05:47:13.254Z,939.76
2023-05-28T05:48:13.408Z,939.75
2023-05-28T05:49:13.222Z,939.74
2023-05-28T05:50:13.222Z,939.76
2023-05-28T05:51:13.233Z,939.82
2023-05-28T05:52:13.191Z,939.76
2023-05-28T05:53:13.295Z,939.78
2023-05-28T05:54:13.168Z,939.77
2023-05-28T05:55:13.154Z,939.77
2023-05-28T05:56:13.149Z,939.72
2023-05-28T05:57:13.144Z,939.72
2023-05-28T05:58:13.129Z,939.70
2023-05-28T05:59:13.133Z,939.69
2023-05-28T06:00:13.121Z,939.72
2023-05-28T06:01:13.104Z,939.65
2023-05-28T06:02:13.162Z,939.67
2023-05-28T06:03:13.142Z,939.67
2023-05-28T06:04:13.119Z,939.68
2023-05-28T06:05:13.077Z,939.72
2023-05-28T06:06:13.061Z,939.64
2023-05-28T06:07:13.033Z,939.60
2023-05-28T06:08:13.099Z,939.67
2023-05-28T06:09:13.001Z,939.64
2023-05-28T06:10:13.013Z,939.66
2023-05-28T06:11:13.003Z,939.63
2023-05-28T06:12:12.976Z,939.61
2023-05-28T06:13:13.008Z,939.64
2023-05-28T06:14:12.986Z,939.65
2023-05-28T06:15:12.956Z,939.63
2023-05-28T06:16:12.956Z,939.68
2023-05-28T06:17:12.960Z,939.65
2023-05-28T06:18:12.991Z,939.65
2023-05-28T06:19:12.921Z,939.66
2023-05-28T06:20:12.917Z,939.64
2023-05-28T06:21:12.879Z,939.66
2023-05-28T06:22:14.936Z,939.66
2023-05-28T06:23:12.856Z,939.66
2023-05-28T06:24:13.152Z,939.70
2023-05-28T06:25:12.842Z,939.64
2023-05-28T06:26:12.860Z,939.65
2023-05-28T06:27:12.853Z,939.64
2023-05-28T06:28:12.844Z,939.63
2023-05-28T06:29:12.828Z,939.55
2023-05-28T06:30:12.866Z,939.62
2023-05-28T06:31:12.933Z,939.59
2023-05-28T06:32:12.775Z,939.59
2023-05-28T06:33:12.826Z,939.64
2023-05-28T06:34:12.774Z,939.57
2023-05-28T06:35:12.767Z,939.63
2023-05-28T06:36:12.740Z,939.58
2023-05-28T06:37:12.730Z,939.60
2023-05-28T06:38:12.714Z,939.49
2023-05-28T06:39:12.780Z,939.52
2023-05-28T06:40:12.685Z,939.53
2023-05-28T06:41:12.671Z,939.54
2023-05-28T06:42:12.695Z,939.54
2023-05-28T06:43:12.660Z,939.57
2023-05-28T06:44:12.650Z,939.53
2023-05-28T06:45:12.707Z,939.52
2023-05-28T06:46:12.653Z,939.54
2023-05-28T06:47:12.663Z,939.50
2023-05-28T06:48:12.617Z,939.46
2023-05-28T06:49:12.582Z,939.52
2023-05-28T06:50:12.646Z,939.51
2023-05-28T06:51:12.568Z,939.53
2023-05-28T06:52:12.562Z,939.51
2023-05-28T06:53:12.539Z,939.50
2023-05-28T06:54:12.540Z,939.50
2023-05-28T06:55:12.525Z,939.50
2023-05-28T06:56:12.548Z,939.48
2023-05-28T06:57:12.506Z,939.48
2023-05-28T06:58:12.489Z,939.46
2023-05-28T06:59:12.486Z,939.42
2023-05-28T07:00:12.503Z,939.38
2023-05-28T07:01:12.480Z,939.41
2023-05-28T07:02:12.555Z,939.35
2023-05-28T07:03:12.480Z,939.36
2023-05-28T07:04:12.456Z,939.34
2023-05-28T07:05:12.466Z,939.33
2023-05-28T07:06:12.460Z,939.34
2023-05-28T07:07:12.416Z,939.30
2023-05-28T07:08:12.385Z,939.31
2023-05-28T07:09:12.372Z,939.32
2023-05-28T07:10:14.128Z,939.30
2023-05-28T07:11:12.364Z,939.29
2023-05-28T07:12:12.392Z,939.33
2023-05-28T07:13:12.332Z,939.28
2023-05-28T07:14:12.325Z,939.23
2023-05-28T07:15:12.326Z,939.25
2023-05-28T07:16:12.348Z,939.21
2023-05-28T07:17:12.322Z,939.26
2023-05-28T07:18:12.322Z,939.26
2023-05-28T07:19:12.298Z,939.25
2023-05-28T07:20:12.416Z,939.19
2023-05-28T07:21:12.253Z,939.24
2023-05-28T07:22:12.306Z,939.27
2023-05-28T07:23:12.306Z,939.22
2023-05-28T07:24:12.317Z,939.18
2023-05-28T07:25:12.264Z,939.13
2023-05-28T07:26:12.206Z,939.15
2023-05-28T07:27:12.206Z,939.16
2023-05-28T07:28:12.184Z,939.16
2023-05-28T07:29:12.181Z,939.14
2023-05-28T07:30:12.166Z,939.14
2023-05-28T07:31:12.252Z,939.10
2023-05-28T07:32:12.250Z,939.15
2023-05-28T07:33:12.194Z,939.13
2023-05-28T07:34:12.123Z,939.08
2023-05-28T07:35:12.142Z,939.09
2023-05-28T07:36:12.105Z,939.06
2023-05-28T07:37:12.103Z,939.11
2023-05-28T07:38:12.104Z,939.05
2023-05-28T07:39:12.069Z,939.07
2023-05-28T07:40:12.177Z,939.09
2023-05-28T07:41:12.050Z,939.08
2023-05-28T07:42:12.044Z,939.10
2023-05-28T07:43:12.030Z,939.09
2023-05-28T07:44:12.014Z,939.07
2023-05-28T07:45:12.030Z,939.04
2023-05-28T07:46:12.093Z,939.09
2023-05-28T07:47:11.989Z,939.01
2023-05-28T07:48:12.012Z,939.05
2023-05-28T07:49:11.969Z,939.07
2023-05-28T07:50:11.978Z,939.07
2023-05-28T07:51:11.977Z,939.04
2023-05-28T07:52:11.976Z,939.03
2023-05-28T07:53:11.982Z,939.00
2023-05-28T07:54:11.989Z,939.07
2023-05-28T07:55:11.947Z,939.06
2023-05-28T07:56:11.920Z,939.05
2023-05-28T07:57:11.886Z,939.04
2023-05-28T07:58:11.902Z,938.98
2023-05-28T07:59:11.952Z,939.02
2023-05-28T08:00:11.858Z,939.03
2023-05-28T08:01:11.900Z,939.03
2023-05-28T08:02:11.911Z,939.01
2023-05-28T08:03:11.969Z,939.03
2023-05-28T08:04:11.882Z,939.02
2023-05-28T08:05:11.806Z,939.01
2023-05-28T08:06:11.838Z,939.05
2023-05-28T08:07:11.801Z,939.02
2023-05-28T08:08:11.792Z,938.98
2023-05-28T08:09:11.820Z,939.01
2023-05-28T08:10:11.800Z,938.97
2023-05-28T08:11:11.777Z,939.02
2023-05-28T08:12:11.796Z,938.94
2023-05-28T08:13:12.679Z,938.92
2023-05-28T08:14:11.714Z,938.91
2023-05-28T08:15:11.775Z,938.96
2023-05-28T08:16:11.868Z,938.97
2023-05-28T08:17:11.718Z,938.96
2023-05-28T08:18:11.776Z,938.89
2023-05-28T08:19:11.707Z,938.93
2023-05-28T08:20:11.785Z,938.93
2023-05-28T08:21:11.640Z,938.94
2023-05-28T08:22:11.645Z,938.88
2023-05-28T08:23:11.644Z,938.85
2023-05-28T08:24:11.635Z,938.85
2023-05-28T08:25:11.645Z,938.83
2023-05-28T08:26:11.741Z,938.83
2023-05-28T08:27:11.601Z,938.86
2023-05-28T08:28:11.601Z,938.79
2023-05-28T08:29:11.597Z,938.85
2023-05-28T08:30:11.722Z,938.83
2023-05-28T08:31:11.584Z,938.78
2023-05-28T08:32:11.551Z,938.78
2023-05-28T08:33:11.544Z,938.82
2023-05-28T08:34:11.520Z,938.75
2023-05-28T08:35:11.557Z,938.80
2023-05-28T08:36:11.612Z,938.84
2023-05-28T08:37:11.493Z,938.77
2023-05-28T08:38:11.479Z,938.78
2023-05-28T08:39:11.524Z,938.79
2023-05-28T08:40:11.476Z,938.79
2023-05-28T08:41:11.469Z,938.72
2023-05-28T08:42:11.470Z,938.78
2023-05-28T08:43:11.419Z,938.71
2023-05-28T08:44:11.425Z,938.66
2023-05-28T08:45:11.430Z,938.71
2023-05-28T08:46:11.460Z,938.67
2023-05-28T08:47:11.520Z,938.69
2023-05-28T08:48:12.103Z,938.69
2023-05-28T08:49:11.723Z,938.70
2023-05-28T08:50:11.356Z,938.73
2023-05-28T08:51:11.445Z,938.66
2023-05-28T08:52:11.355Z,938.71
2023-05-28T08:53:11.326Z,938.80
2023-05-28T08:54:11.357Z,938.74
2023-05-28T08:55:11.329Z,938.85
2023-05-28T08:56:11.388Z,938.77
2023-05-28T08:57:11.287Z,938.72
2023-05-28T08:58:11.299Z,938.79
2023-05-28T08:59:11.281Z,938.71
2023-05-28T09:00:11.283Z,938.65
2023-05-28T09:01:11.323Z,938.68
2023-05-28T09:02:11.714Z,938.72
2023-05-28T09:03:11.290Z,938.66
2023-05-28T09:04:11.327Z,938.71
2023-05-28T09:05:11.211Z,938.65
2023-05-28T09:06:11.317Z,938.64
2023-05-28T09:07:11.208Z,938.64
2023-05-28T09:08:11.293Z,938.55
2023-05-28T09:09:11.169Z,938.63
2023-05-28T09:10:11.177Z,938.60
2023-05-28T09:11:11.141Z,938.56
2023-05-28T09:12:11.177Z,938.54
2023-05-28T09:13:11.152Z,938.50
2023-05-28T09:14:11.149Z,938.50
2023-05-28T09:15:11.116Z,938.59
2023-05-28T09:16:12.964Z,938.53
2023-05-28T09:17:11.251Z,938.62
2023-05-28T09:18:11.138Z,938.48
2023-05-28T09:19:11.095Z,938.51
2023-05-28T09:20:11.102Z,938.46
2023-05-28T09:21:11.057Z,938.49
2023-05-28T09:22:11.072Z,938.43
2023-05-28T09:23:11.043Z,938.36
2023-05-28T09:24:11.063Z,938.30
2023-05-28T09:25:11.025Z,938.39
2023-05-28T09:26:11.004Z,938.37
2023-05-28T09:27:11.007Z,938.33
2023-05-28T09:28:11.033Z,938.32
2023-05-28T09:29:10.979Z,938.34
2023-05-28T09:30:11.000Z,938.36
2023-05-28T09:31:11.064Z,938.31
2023-05-28T09:32:10.987Z,938.27
2023-05-28T09:33:10.985Z,938.24
2023-05-28T09:34:10.966Z,938.26
2023-05-28T09:35:10.922Z,938.24
2023-05-28T09:36:10.908Z,938.28
2023-05-28T09:37:10.963Z,938.27
2023-05-28T09:38:10.982Z,938.30
2023-05-28T09:39:11.724Z,938.23
2023-05-28T09:40:10.885Z,938.20
2023-05-28T09:41:10.860Z,938.21
2023-05-28T09:42:10.892Z,938.19
2023-05-28T09:43:10.850Z,938.19
2023-05-28T09:44:10.857Z,938.17
2023-05-28T09:45:10.834Z,938.19
2023-05-28T09:46:10.917Z,938.18
2023-05-28T09:47:10.816Z,938.11
2023-05-28T09:48:10.876Z,938.14
2023-05-28T09:49:10.813Z,938.21
2023-05-28T09:50:10.802Z,938.15
2023-05-28T09:51:10.784Z,938.10
2023-05-28T09:52:10.865Z,938.14
2023-05-28T09:53:18.342Z,938.12
2023-05-28T09:54:10.740Z,938.19
2023-05-28T09:55:10.731Z,938.09
2023-05-28T09:56:10.727Z,938.12
2023-05-28T09:57:10.724Z,938.07
2023-05-28T09:58:10.743Z,938.07
2023-05-28T09:59:10.734Z,938.08
2023-05-28T10:00:10.687Z,938.02
2023-05-28T10:01:10.727Z,938.07
2023-05-28T10:02:10.765Z,938.00
2023-05-28T10:03:10.730Z,938.05
2023-05-28T10:04:10.883Z,938.01
2023-05-28T10:05:10.667Z,937.97
2023-05-28T10:06:10.629Z,937.98
2023-05-28T10:07:10.621Z,937.96
2023-05-28T10:08:10.610Z,938.00
2023-05-28T10:09:10.639Z,937.94
2023-05-28T10:10:10.605Z,937.92
2023-05-28T10:11:10.587Z,938.01
2023-05-28T10:12:10.582Z,937.96
2023-05-28T10:13:10.576Z,938.00
2023-05-28T10:14:10.585Z,938.01
2023-05-28T10:15:10.557Z,938.01
2023-05-28T10:16:10.748Z,937.97
2023-05-28T10:17:10.561Z,938.01
2023-05-28T10:18:10.574Z,938.04
2023-05-28T10:19:10.518Z,938.03
2023-05-28T10:20:10.582Z,937.99
2023-05-28T10:21:10.545Z,938.06
2023-05-28T10:22:10.489Z,937.95
2023-05-28T10:23:10.513Z,937.90
2023-05-28T10:24:10.454Z,937.89
2023-05-28T10:25:10.457Z,937.96
2023-05-28T10:26:10.478Z,937.97
2023-05-28T10:27:10.453Z,937.94
2023-05-28T10:28:10.426Z,937.90
2023-05-28T10:29:10.553Z,937.98
2023-05-28T10:30:10.404Z,937.91
2023-05-28T10:31:10.402Z,937.87
2023-05-28T10:32:10.417Z,937.89
2023-05-28T10:33:10.476Z,937.92
2023-05-28T10:34:10.414Z,937.84
2023-05-28T10:35:10.383Z,937.85
2023-05-28T10:36:10.389Z,937.81
2023-05-28T10:37:10.407Z,937.82
2023-05-28T10:38:10.335Z,937.95
2023-05-28T10:39:10.337Z,937.94
2023-05-28T10:40:10.343Z,937.95
2023-05-28T10:41:10.315Z,937.95
2023-05-28T10:42:10.635Z,937.97
2023-05-28T10:43:10.284Z,937.88
2023-05-28T10:44:10.287Z,937.87
2023-05-28T10:45:10.292Z,937.82
2023-05-28T10:46:10.367Z,937.85
2023-05-28T10:47:10.256Z,937.82
2023-05-28T10:48:11.209Z,937.84
2023-05-28T10:49:10.252Z,937.76
2023-05-28T10:50:15.242Z,937.79
2023-05-28T10:51:11.224Z,937.75
2023-05-28T10:52:10.210Z,937.72
2023-05-28T10:53:10.210Z,937.67
2023-05-28T10:54:10.195Z,937.68
2023-05-28T10:55:10.221Z,937.64
2023-05-28T10:56:10.186Z,937.66
2023-05-28T10:57:10.232Z,937.63
2023-05-28T10:58:10.164Z,937.62
2023-05-28T10:59:10.145Z,937.68
2023-05-28T11:00:10.152Z,937.66
2023-05-28T11:01:10.219Z,937.69
2023-05-28T11:02:10.119Z,937.67
2023-05-28T11:03:10.165Z,937.66
2023-05-28T11:04:17.640Z,937.61
2023-05-28T11:05:10.083Z,937.58
2023-05-28T11:06:10.114Z,937.62
2023-05-28T11:07:10.089Z,937.66
2023-05-28T11:08:10.078Z,937.62
2023-05-28T11:09:10.049Z,937.67
2023-05-28T11:10:10.052Z,937.72
2023-05-28T11:11:10.031Z,937.66
2023-05-28T11:12:10.008Z,937.57
2023-05-28T11:13:10.020Z,937.61
2023-05-28T11:14:10.000Z,937.72
2023-05-28T11:15:10.051Z,937.71
2023-05-28T11:16:14.888Z,937.60
2023-05-28T11:17:10.061Z,937.58
2023-05-28T11:18:10.245Z,937.62
2023-05-28T11:19:10.098Z,937.53
2023-05-28T11:20:10.100Z,937.54
2023-05-28T11:21:09.995Z,937.55
2023-05-28T11:22:09.953Z,937.52
2023-05-28T11:23:09.972Z,937.48
2023-05-28T11:24:09.909Z,937.49
2023-05-28T11:25:10.076Z,937.47
2023-05-28T11:26:18.881Z,937.56
2023-05-28T11:27:10.881Z,937.47
2023-05-28T11:28:09.877Z,937.47
2023-05-28T11:29:09.870Z,937.48
2023-05-28T11:30:09.887Z,937.55
2023-05-28T11:31:09.886Z,937.55
2023-05-28T11:32:09.905Z,937.54
2023-05-28T11:33:10.006Z,937.48
2023-05-28T11:34:09.830Z,937.42
2023-05-28T11:35:09.861Z,937.43
2023-05-28T11:36:09.805Z,937.46
2023-05-28T11:37:09.828Z,937.42
2023-05-28T11:38:10.845Z,937.47
2023-05-28T11:39:09.777Z,937.48
2023-05-28T11:40:09.778Z,937.53
2023-05-28T11:41:09.747Z,937.53
2023-05-28T11:42:09.750Z,937.55
2023-05-28T11:43:09.730Z,937.48
2023-05-28T11:44:09.754Z,937.49
2023-05-28T11:45:09.730Z,937.46
2023-05-28T11:46:14.385Z,937.47
2023-05-28T11:47:09.733Z,937.51
2023-05-28T11:48:09.744Z,937.52
2023-05-28T11:49:09.680Z,937.51
2023-05-28T11:50:09.718Z,937.51
2023-05-28T11:51:09.766Z,937.48
2023-05-28T11:52:09.657Z,937.51
2023-05-28T11:53:09.705Z,937.55
2023-05-28T11:54:09.629Z,937.51
2023-05-28T11:55:09.631Z,937.49
2023-05-28T11:56:09.643Z,937.48
2023-05-28T11:57:09.604Z,937.51
2023-05-28T11:58:09.593Z,937.53
2023-05-28T11:59:09.604Z,937.49
2023-05-28T12:00:09.703Z,937.50
2023-05-28T12:01:09.604Z,937.56
2023-05-28T12:02:09.566Z,937.57
2023-05-28T12:03:09.734Z,937.52
2023-05-28T12:04:09.610Z,937.46
2023-05-28T12:05:09.612Z,937.50
2023-05-28T12:06:09.686Z,937.56
2023-05-28T12:07:09.522Z,937.54
2023-05-28T12:08:09.502Z,937.52
2023-05-28T12:09:09.631Z,937.46
2023-05-28T12:10:09.721Z,937.49
2023-05-28T12:11:09.468Z,937.53
2023-05-28T12:12:09.441Z,937.50
2023-05-28T12:13:09.433Z,937.49
2023-05-28T12:14:09.461Z,937.48
2023-05-28T12:15:09.536Z,937.46
2023-05-28T12:16:09.419Z,937.50
2023-05-28T12:17:09.424Z,937.53
2023-05-28T12:18:09.632Z,937.49
2023-05-28T12:19:09.424Z,937.49
2023-05-28T12:20:09.557Z,937.49
2023-05-28T12:21:09.388Z,937.49
2023-05-28T12:22:09.451Z,937.49
2023-05-28T12:23:09.354Z,937.45
2023-05-28T12:24:09.398Z,937.58
2023-05-28T12:25:09.348Z,937.57
2023-05-28T12:26:09.339Z,937.55
2023-05-28T12:27:09.313Z,937.58
2023-05-28T12:28:09.327Z,937.55